createdAt,value
2023-05-15T00:01:00.482Z,8.33
2023-05-15T00:04:06.238Z,8.50
2023-05-15T00:07:12.414Z,7.62
2023-05-15T00:10:17.868Z,7.83
2023-05-15T00:13:23.373Z,8.78
2023-05-15T00:16:28.456Z,8.50
2023-05-15T00:19:34.563Z,8.43
2023-05-15T00:22:40.733Z,9.18
2023-05-15T00:25:46.466Z,9.35
2023-05-15T00:28:53.831Z,10.45
2023-05-15T00:31:59.534Z,10.68
2023-05-15T00:35:05.703Z,10.75
2023-05-15T00:38:10.908Z,11.65
2023-05-15T00:41:16.802Z,11.90
2023-05-15T00:44:22.268Z,11.30
2023-05-15T00:47:28.320Z,11.20
2023-05-15T00:50:34.773Z,9.75
2023-05-15T00:53:42.025Z,10.30
2023-05-15T00:56:48.232Z,9.80
2023-05-15T00:59:56.968Z,9.78
2023-05-15T01:03:03.863Z,9.90
2023-05-15T01:06:10.245Z,8.33
2023-05-15T01:09:16.340Z,8.18
2023-05-15T01:12:23.272Z,8.23
2023-05-15T01:15:28.173Z,8.88
2023-05-15T01:18:37.651Z,8.80
2023-05-15T01:21:55.817Z,8.20
2023-05-15T01:25:26.219Z,8.13
2023-05-15T01:28:35.577Z,7.65
2023-05-15T01:31:41.059Z,7.95
2023-05-15T01:34:55.021Z,7.62
2023-05-15T01:38:05.544Z,8.18
2023-05-15T01:41:17.762Z,7.92
2023-05-15T01:44:35.032Z,9.03
2023-05-15T01:47:56.179Z,8.85
2023-05-15T01:51:02.966Z,8.70
2023-05-15T01:54:09.214Z,8.93
2023-05-15T01:57:15.653Z,9.03
2023-05-15T02:00:23.054Z,8.98
2023-05-15T02:03:29.038Z,8.48
2023-05-15T02:06:35.774Z,7.92
2023-05-15T02:09:41.612Z,8.40
2023-05-15T02:12:47.312Z,8.25
2023-05-15T02:15:53.419Z,8.53
2023-05-15T02:18:59.565Z,7.83
2023-05-15T02:22:05.222Z,7.42
2023-05-15T02:25:11.480Z,7.67
2023-05-15T02:28:16.292Z,8.43
2023-05-15T02:31:25.213Z,8.28
2023-05-15T02:34:55.381Z,8.05
2023-05-15T02:38:04.177Z,7.53
2023-05-15T02:41:09.563Z,7.85
2023-05-15T02:44:14.793Z,7.33
2023-05-15T02:47:21.897Z,6.85
2023-05-15T02:50:28.622Z,6.30
2023-05-15T02:53:34.884Z,7.17
2023-05-15T02:56:40.846Z,7.28
2023-05-15T02:59:48.439Z,7.45
2023-05-15T03:02:55.070Z,8.38
2023-05-15T03:05:53.814Z,9.28
2023-05-15T03:08:46.909Z,9.33
2023-05-15T03:11:53.484Z,11.05
2023-05-15T03:14:59.198Z,11.03
2023-05-15T03:18:05.400Z,11.83
2023-05-15T03:21:10.606Z,11.95
2023-05-15T03:24:16.701Z,11.22
2023-05-15T03:27:23.396Z,11.83
2023-05-15T03:30:28.858Z,11.48
2023-05-15T03:33:36.362Z,10.43
2023-05-15T03:36:42.503Z,9.33
2023-05-15T03:39:49.823Z,9.83
2023-05-15T03:42:59.005Z,9.18
2023-05-15T03:46:06.056Z,8.18
2023-05-15T03:49:14.813Z,8.10
2023-05-15T03:52:23.613Z,7.60
2023-05-15T03:55:30.635Z,7.90
2023-05-15T03:58:39.567Z,7.92
2023-05-15T04:02:02.723Z,7.50
2023-05-15T04:04:53.345Z,7.95
2023-05-15T04:08:01.421Z,8.00
2023-05-15T04:11:06.886Z,8.13
2023-05-15T04:14:12.438Z,8.43
2023-05-15T04:17:18.231Z,7.40
2023-05-15T04:20:24.920Z,7.80
2023-05-15T04:23:30.812Z,5.97
2023-05-15T04:26:36.373Z,6.50
2023-05-15T04:29:41.883Z,6.20
2023-05-15T04:32:49.958Z,6.55
2023-05-15T04:35:55.979Z,6.20
2023-05-15T04:39:01.938Z,6.80
2023-05-15T04:42:09.471Z,6.90
2023-05-15T04:45:16.455Z,6.20
2023-05-15T04:48:25.414Z,6.67
2023-05-15T04:51:30.748Z,6.70
2023-05-15T04:54:36.779Z,6.62
2023-05-15T04:57:42.534Z,6.80
2023-05-15T05:00:48.254Z,7.12
2023-05-15T05:03:53.791Z,6.58
2023-05-15T05:06:59.130Z,6.35
2023-05-15T05:10:05.499Z,6.15
2023-05-15T05:13:12.365Z,5.70
2023-05-15T05:16:18.158Z,6.85
2023-05-15T05:19:23.317Z,5.80
2023-05-15T05:22:28.492Z,5.78
2023-05-15T05:25:34.535Z,5.97
2023-05-15T05:28:40.612Z,6.25
2023-05-15T05:31:47.255Z,5.60
2023-05-15T05:34:53.729Z,5.30
2023-05-15T05:38:00.175Z,5.33
2023-05-15T05:41:07.013Z,5.00
2023-05-15T05:44:17.363Z,5.10
2023-05-15T05:47:23.947Z,4.85
2023-05-15T05:50:29.037Z,5.20
2023-05-15T05:53:36.958Z,4.72
2023-05-15T05:56:43.647Z,4.95
2023-05-15T05:59:49.582Z,4.95
2023-05-15T06:02:58.002Z,4.67
2023-05-15T06:06:04.553Z,4.62
2023-05-15T06:09:11.634Z,4.80
2023-05-15T06:12:21.063Z,5.50
2023-05-15T06:15:29.132Z,6.58
2023-05-15T06:18:35.646Z,5.72
2023-05-15T06:21:39.899Z,5.12
2023-05-15T06:24:45.712Z,5.45
2023-05-15T06:27:52.046Z,5.33
2023-05-15T06:30:59.293Z,5.30
2023-05-15T06:34:05.564Z,4.95
2023-05-15T06:37:11.248Z,4.90
2023-05-15T06:40:17.688Z,4.35
2023-05-15T06:43:23.078Z,4.83
2023-05-15T06:46:28.536Z,4.83
2023-05-15T06:49:34.136Z,4.80
2023-05-15T06:52:39.405Z,4.25
2023-05-15T06:55:44.600Z,4.17
2023-05-15T06:58:50.765Z,4.40
2023-05-15T07:01:57.560Z,4.10
2023-05-15T07:05:05.914Z,4.45
2023-05-15T07:08:11.899Z,4.80
2023-05-15T07:11:17.542Z,4.15
2023-05-15T07:14:23.154Z,4.30
2023-05-15T07:17:29.626Z,5.83
2023-05-15T07:20:35.667Z,5.03
2023-05-15T07:23:42.891Z,4.10
2023-05-15T07:26:58.158Z,3.67
2023-05-15T07:29:56.139Z,3.87
2023-05-15T07:33:02.997Z,3.40
2023-05-15T07:36:10.223Z,3.47
2023-05-15T07:39:16.936Z,3.37
2023-05-15T07:42:22.493Z,3.50
2023-05-15T07:45:31.361Z,3.22
2023-05-15T07:48:37.918Z,3.40
2023-05-15T07:51:44.626Z,4.12
2023-05-15T07:54:50.279Z,4.87
2023-05-15T07:57:55.454Z,3.02
2023-05-15T08:01:02.140Z,3.45
2023-05-15T08:04:07.127Z,4.47
2023-05-15T08:07:13.961Z,3.35
2023-05-15T08:10:23.742Z,7.03
2023-05-15T08:13:29.560Z,3.02
2023-05-15T08:16:35.927Z,2.87
2023-05-15T08:19:42.979Z,3.80
2023-05-15T08:22:48.031Z,3.77
2023-05-15T08:25:53.602Z,3.65
2023-05-15T08:29:00.030Z,3.17
2023-05-15T08:32:06.571Z,3.20
2023-05-15T08:35:13.944Z,3.25
2023-05-15T08:38:20.053Z,3.10
2023-05-15T08:41:40.067Z,3.52
2023-05-15T08:44:40.298Z,3.58
2023-05-15T08:47:45.505Z,3.80
2023-05-15T08:50:52.831Z,4.00
2023-05-15T08:54:01.265Z,3.83
2023-05-15T08:57:09.053Z,4.15
2023-05-15T09:00:15.531Z,3.72
2023-05-15T09:03:22.997Z,3.47
2023-05-15T09:06:29.209Z,3.15
2023-05-15T09:09:36.304Z,3.52
2023-05-15T09:12:41.589Z,3.52
2023-05-15T09:15:48.316Z,4.15
2023-05-15T09:18:54.991Z,4.08
2023-05-15T09:22:02.324Z,4.80
2023-05-15T09:25:09.623Z,4.85
2023-05-15T09:28:15.151Z,4.40
2023-05-15T09:31:22.767Z,3.55
2023-05-15T09:34:29.105Z,3.70
2023-05-15T09:37:46.009Z,4.17
2023-05-15T09:40:50.895Z,4.47
2023-05-15T09:43:57.166Z,4.03
2023-05-15T09:47:05.470Z,3.67
2023-05-15T09:50:13.260Z,3.37
2023-05-15T09:53:21.472Z,3.25
2023-05-15T09:56:26.986Z,3.47
2023-05-15T09:59:34.661Z,3.37
2023-05-15T10:02:42.145Z,3.62
2023-05-15T10:05:47.859Z,3.00
2023-05-15T10:08:55.993Z,3.10
2023-05-15T10:12:06.634Z,3.58
2023-05-15T10:15:13.415Z,3.35
2023-05-15T10:18:21.047Z,2.67
2023-05-15T10:21:27.952Z,2.50
2023-05-15T10:24:33.088Z,4.00
2023-05-15T10:27:41.118Z,2.98
2023-05-15T10:30:47.603Z,2.77
2023-05-15T10:33:54.809Z,3.20
2023-05-15T10:37:01.275Z,2.58
2023-05-15T10:40:08.416Z,3.02
2023-05-15T10:43:14.883Z,2.83
2023-05-15T10:46:21.421Z,2.83
2023-05-15T10:49:28.043Z,2.72
2023-05-15T10:52:33.767Z,3.47
2023-05-15T10:55:40.103Z,2.15
2023-05-15T10:58:46.341Z,2.67
2023-05-15T11:01:54.952Z,3.10
2023-05-15T11:04:59.805Z,2.72
2023-05-15T11:08:35.598Z,3.45
2023-05-15T11:12:12.971Z,2.72
2023-05-15T11:15:31.245Z,2.40
2023-05-15T11:18:38.555Z,2.75
2023-05-15T11:21:47.567Z,2.83
2023-05-15T11:25:14.173Z,2.72
2023-05-15T11:28:20.902Z,3.02
2023-05-15T11:31:26.152Z,2.95
2023-05-15T11:34:34.463Z,2.87
2023-05-15T11:37:41.214Z,2.58
2023-05-15T11:41:05.804Z,2.80
2023-05-15T11:44:11.716Z,3.08
2023-05-15T11:47:15.968Z,3.20
2023-05-15T11:50:23.243Z,3.50
2023-05-15T11:53:27.923Z,4.08
2023-05-15T11:56:40.987Z,3.80
2023-05-15T12:02:57.954Z,2.60
2023-05-15T12:06:04.724Z,2.50
2023-05-15T12:09:12.748Z,2.40
2023-05-15T12:12:18.870Z,2.55
2023-05-15T12:15:30.263Z,3.35
2023-05-15T12:18:36.920Z,3.00
2023-05-15T12:21:46.715Z,2.67
2023-05-15T12:24:56.382Z,2.62
2023-05-15T12:28:03.188Z,2.65
2023-05-15T12:31:09.474Z,2.40
2023-05-15T12:34:14.984Z,2.08
2023-05-15T12:37:21.406Z,2.70
2023-05-15T12:40:27.488Z,2.75
2023-05-15T12:43:35.128Z,3.22
2023-05-15T12:46:45.557Z,2.60
2023-05-15T12:49:55.175Z,2.83
2023-05-15T12:53:08.868Z,2.70
2023-05-15T12:56:14.413Z,2.40
2023-05-15T12:59:20.701Z,2.60
2023-05-15T13:02:28.057Z,2.60
2023-05-15T13:05:33.392Z,2.40
2023-05-15T13:08:39.381Z,4.15
2023-05-15T13:11:49.606Z,2.42
2023-05-15T13:14:57.921Z,2.55
2023-05-15T13:18:07.528Z,2.52
2023-05-15T13:21:13.523Z,2.30
2023-05-15T13:24:21.646Z,2.70
2023-05-15T13:27:27.244Z,2.50
2023-05-15T13:30:36.137Z,3.00
2023-05-15T13:33:43.381Z,2.80
2023-05-15T13:36:49.282Z,3.17
2023-05-15T13:39:55.058Z,2.52
2023-05-15T13:43:01.654Z,2.40
2023-05-15T13:46:09.169Z,2.50
2023-05-15T13:49:18.863Z,2.55
2023-05-15T13:52:28.999Z,2.60
2023-05-15T13:55:35.177Z,2.90
2023-05-15T13:58:42.243Z,2.58
2023-05-15T14:01:49.670Z,2.75
2023-05-15T14:04:56.013Z,2.85
2023-05-15T14:08:03.730Z,2.67
2023-05-15T14:11:09.194Z,5.92
2023-05-15T14:14:15.501Z,2.83
2023-05-15T14:17:24.365Z,2.75
2023-05-15T14:20:29.919Z,2.50
2023-05-15T14:23:34.991Z,2.75
2023-05-15T14:26:41.351Z,2.60
2023-05-15T14:29:47.511Z,2.77
2023-05-15T14:32:54.348Z,2.22
2023-05-15T14:36:01.110Z,2.17
2023-05-15T14:39:06.996Z,2.50
2023-05-15T14:42:12.944Z,2.22
2023-05-15T14:45:18.012Z,2.42
2023-05-15T14:48:25.559Z,2.47
2023-05-15T14:51:31.891Z,2.58
2023-05-15T14:54:37.639Z,2.45
2023-05-15T14:57:42.894Z,2.60
2023-05-15T15:00:49.876Z,2.15
2023-05-15T15:03:55.639Z,2.40
2023-05-15T15:07:05.353Z,2.65
2023-05-15T15:10:10.265Z,2.30
2023-05-15T15:13:17.417Z,2.30
2023-05-15T15:16:23.060Z,2.33
2023-05-15T15:19:29.643Z,2.62
2023-05-15T15:22:34.853Z,2.35
2023-05-15T15:25:41.636Z,2.45
2023-05-15T15:28:47.893Z,2.65
2023-05-15T15:31:53.001Z,2.60
2023-05-15T15:34:59.212Z,2.60
2023-05-15T15:38:04.973Z,2.47
2023-05-15T15:41:11.919Z,2.70
2023-05-15T15:44:17.484Z,2.25
2023-05-15T15:47:24.183Z,2.85
2023-05-15T15:50:31.543Z,2.75
2023-05-15T15:53:41.773Z,3.22
2023-05-15T15:56:46.700Z,2.60
2023-05-15T15:59:54.694Z,2.75
2023-05-15T16:03:01.857Z,2.70
2023-05-15T16:06:06.898Z,2.35
2023-05-15T16:09:12.783Z,2.37
2023-05-15T16:12:18.263Z,2.50
2023-05-15T16:15:23.228Z,2.83
2023-05-15T16:18:12.029Z,2.75
2023-05-15T16:21:17.016Z,3.20
2023-05-15T16:24:23.217Z,4.20
2023-05-15T16:27:29.591Z,3.50
2023-05-15T16:30:48.112Z,3.05
2023-05-15T16:33:46.622Z,3.65
2023-05-15T16:36:51.810Z,4.67
2023-05-15T16:39:57.675Z,4.62
2023-05-15T16:43:03.811Z,5.35
2023-05-15T16:46:09.550Z,4.90
2023-05-15T16:49:17.724Z,5.00
2023-05-15T16:52:22.425Z,5.50
2023-05-15T16:55:30.110Z,4.97
2023-05-15T16:58:35.587Z,5.70
2023-05-15T17:01:41.698Z,5.47
2023-05-15T17:04:48.941Z,5.90
2023-05-15T17:07:55.162Z,5.80
2023-05-15T17:11:01.254Z,4.97
2023-05-15T17:14:08.768Z,4.58
2023-05-15T17:17:13.947Z,4.53
2023-05-15T17:20:20.248Z,4.08
2023-05-15T17:23:26.561Z,4.58
2023-05-15T17:26:31.672Z,3.75
2023-05-15T17:29:39.379Z,4.35
2023-05-15T17:32:44.651Z,3.72
2023-05-15T17:35:50.070Z,4.15
2023-05-15T17:38:57.120Z,4.55
2023-05-15T17:42:04.126Z,5.95
2023-05-15T17:45:10.548Z,7.05
2023-05-15T17:48:17.629Z,8.05
2023-05-15T17:51:23.612Z,8.70
2023-05-15T17:54:29.841Z,9.43
2023-05-15T17:57:35.422Z,8.98
2023-05-15T18:00:41.890Z,9.10
2023-05-15T18:03:47.821Z,10.35
2023-05-15T18:06:55.549Z,10.68
2023-05-15T18:10:01.357Z,10.70
2023-05-15T18:13:07.509Z,9.73
2023-05-15T18:16:13.511Z,9.03
2023-05-15T18:19:19.843Z,8.05
2023-05-15T18:22:27.548Z,8.93
2023-05-15T18:25:32.839Z,8.10
2023-05-15T18:28:38.608Z,8.78
2023-05-15T18:31:44.855Z,8.28
2023-05-15T18:34:52.147Z,9.15
2023-05-15T18:37:58.974Z,8.00
2023-05-15T18:41:05.247Z,9.38
2023-05-15T18:44:11.213Z,10.30
2023-05-15T18:47:17.253Z,10.82
2023-05-15T18:50:23.626Z,11.30
2023-05-15T18:53:30.820Z,12.58
2023-05-15T18:56:38.103Z,14.15
2023-05-15T18:59:45.338Z,12.40
2023-05-15T19:02:53.369Z,13.38
2023-05-15T19:05:59.216Z,11.65
2023-05-15T19:09:04.954Z,12.88
2023-05-15T19:12:14.342Z,10.93
2023-05-15T19:15:23.964Z,11.08
2023-05-15T19:18:30.550Z,10.00
2023-05-15T19:21:36.294Z,10.32
2023-05-15T19:24:42.773Z,10.93
2023-05-15T19:27:48.465Z,10.58
2023-05-15T19:30:56.919Z,10.43
2023-05-15T19:34:03.969Z,11.10
2023-05-15T19:37:09.507Z,8.93
2023-05-15T19:40:16.085Z,9.03
2023-05-15T19:43:22.128Z,9.10
2023-05-15T19:46:30.304Z,8.88
2023-05-15T19:49:39.040Z,7.72
2023-05-15T19:52:45.413Z,8.78
2023-05-15T19:55:52.734Z,7.15
2023-05-15T19:58:59.638Z,5.55
2023-05-15T20:02:06.150Z,6.17
2023-05-15T20:05:12.674Z,6.47
2023-05-15T20:08:22.892Z,7.12
2023-05-15T20:11:28.175Z,8.10
2023-05-15T20:14:35.713Z,8.40
2023-05-15T20:17:41.504Z,9.43
2023-05-15T20:20:47.960Z,9.45
2023-05-15T20:23:56.275Z,10.25
2023-05-15T20:27:02.649Z,9.18
2023-05-15T20:30:07.481Z,9.53
2023-05-15T20:33:12.783Z,8.58
2023-05-15T20:36:17.741Z,8.80
2023-05-15T20:39:24.183Z,9.18
2023-05-15T20:42:30.454Z,7.45
2023-05-15T20:45:35.724Z,7.55
2023-05-15T20:48:56.869Z,7.10
2023-05-15T20:52:02.022Z,7.58
2023-05-15T20:55:07.433Z,6.35
2023-05-15T20:58:13.343Z,6.33
2023-05-15T21:01:20.434Z,5.97
2023-05-15T21:04:26.366Z,5.80
2023-05-15T21:07:32.212Z,6.50
2023-05-15T21:10:37.574Z,5.80
2023-05-15T21:13:43.576Z,5.08
2023-05-15T21:16:49.842Z,5.33
2023-05-15T21:19:58.810Z,4.60
2023-05-15T21:23:04.353Z,5.28
2023-05-15T21:26:10.079Z,5.20
2023-05-15T21:29:16.839Z,5.55
2023-05-15T21:32:25.296Z,5.08
2023-05-15T21:35:33.409Z,6.03
2023-05-15T21:38:39.306Z,5.10
2023-05-15T21:41:45.962Z,4.35
2023-05-15T21:44:50.938Z,5.12
2023-05-15T21:47:57.260Z,4.28
2023-05-15T21:51:04.203Z,4.45
2023-05-15T21:54:09.595Z,4.45
2023-05-15T21:57:15.650Z,5.28
2023-05-15T22:00:22.813Z,5.17
2023-05-15T22:03:27.985Z,5.00
2023-05-15T22:06:34.144Z,4.80
2023-05-15T22:09:40.704Z,5.65
2023-05-15T22:12:45.714Z,5.33
2023-05-15T22:15:52.389Z,5.20
2023-05-15T22:18:59.846Z,4.12
2023-05-15T22:22:05.849Z,4.22
2023-05-15T22:25:11.292Z,3.87
2023-05-15T22:28:17.110Z,4.25
2023-05-15T22:31:25.159Z,3.77
2023-05-15T22:34:32.115Z,3.77
2023-05-15T22:37:37.363Z,4.45
2023-05-15T22:40:42.383Z,3.30
2023-05-15T22:43:49.382Z,3.60
2023-05-15T22:46:55.752Z,4.20
2023-05-15T22:50:02.279Z,3.87
2023-05-15T22:53:08.242Z,3.92
2023-05-15T22:56:14.666Z,3.77
2023-05-15T22:59:21.392Z,4.20
2023-05-15T23:02:26.573Z,4.50
2023-05-15T23:05:32.049Z,3.87
2023-05-15T23:08:37.577Z,4.40
2023-05-15T23:11:44.238Z,3.90
2023-05-15T23:14:50.569Z,3.77
2023-05-15T23:17:57.642Z,4.10
2023-05-15T23:21:04.941Z,3.92
2023-05-15T23:24:09.969Z,3.92
2023-05-15T23:27:15.962Z,4.00
2023-05-15T23:30:23.732Z,4.08
2023-05-15T23:33:29.973Z,4.58
2023-05-15T23:36:35.658Z,3.83
2023-05-15T23:39:43.022Z,4.10
2023-05-15T23:42:49.159Z,3.98
2023-05-15T23:45:56.360Z,4.22
2023-05-15T23:49:02.293Z,3.95
2023-05-15T23:52:08.227Z,4.70
2023-05-15T23:55:14.602Z,4.22
2023-05-15T23:58:20.499Z,4.20
